• Join FlightAware (Why Join?)
  • Login
  • US Flag 
02:10PM EDT


 

Airport Tracker/Info


-or-


 

Live Flight TrackerFlight Track Log ✈ EJA929 ✈ 17-Jul-2013 ✈ KTEB - KJQF

Flight Track Log - Related Links

Times and Time Zones

All times are in EDT time to prevent confusion due to time zone crossing. See the EJA929 flight status page for this flight to view local times or setup timezone preferences in your user account.

Time Position Orientation Groundspeed Altitude Reporting Facility
EDT Latitude Longitude Course Direction KTS MPH feet Rate Location/Type
05:47PM 40.8333 -74.0833 252° West 177 204 1,100  Level New York TRACON
05:48PM 40.8167 -74.1500 252° West 218 251 1,800 1,320 Climbing New York TRACON
05:49PM 40.8167 -74.2333 270° West 239 275 3,800 1,800 Climbing New York TRACON
05:50PM 40.7500 -74.2500 191° South 249 287 5,500 2,040 Climbing New York TRACON
05:51PM 40.6833 -74.2667 191° South 260 299 7,700 2,520 Climbing New York TRACON
05:52PM 40.6000 -74.2667 180° South 277 319 10,600 2,340 Climbing New York TRACON
05:53PM 40.4669 -74.2383 171° South 311 358 14,200 1,860 Climbing New York Center
05:54PM 40.3889 -74.1989 159° South 325 374 15,700 1,380 Climbing New York Center
05:55PM 40.2794 -74.1689 168° South 354 407 17,000 900 Climbing New York Center
05:56PM 40.1783 -74.2019 194° South 374 430 17,500 1,080 Climbing New York Center
05:58PM 39.9750 -74.2783 196° South 420 483 19,900 1,380 Climbing Washington Center
05:59PM 39.8781 -74.3694 216° Southwest 420 483 21,400 1,440 Climbing Washington Center
06:00PM 39.7875 -74.4681 220° Southwest 430 495 22,900 1,500 Climbing Washington Center
06:01PM 39.6967 -74.5747 222° Southwest 436 502 24,500 1,560 Climbing Washington Center
06:02PM 39.5869 -74.6544 209° Southwest 446 513 26,000 1,500 Climbing Washington Center
06:03PM 39.4792 -74.7311 209° Southwest 451 519 27,500 1,500 Climbing Washington Center
06:04PM 39.3650 -74.8103 208° Southwest 456 525 29,000 1,500 Climbing Washington Center
06:05PM 39.2531 -74.8894 209° Southwest 456 525 30,500 1,440 Climbing Washington Center
06:06PM 39.1431 -74.9681 209° Southwest 456 525 32,000 1,440 Climbing Washington Center
06:07PM 39.0267 -75.0464 208° Southwest 461 531 33,500 960 Climbing Washington Center
06:08PM 38.9081 -75.1275 208° Southwest 466 536 34,000 240 Climbing Washington Center
06:09PM 38.7833 -75.2136 208° Southwest 485 558 34,000  Level Washington Center
06:10PM 38.6544 -75.3019 208° Southwest 510 587 34,000  Level Washington Center
06:11PM 38.5233 -75.3928 208° Southwest 523 602 34,000  Level Washington Center
06:12PM 38.3942 -75.4778 207° Southwest 528 608 34,000  Level Washington Center
06:13PM 38.2711 -75.5758 212° Southwest 528 608 34,000  Level Washington Center
06:14PM 38.1522 -75.6894 217° Southwest 528 608 34,000  Level Washington Center
06:15PM 38.0583 -75.7764 216° Southwest 533 613 34,000 60 Level Washington Center
06:16PM 37.9183 -75.9103 217° Southwest 533 613 34,200 660 Climbing Washington Center
06:17PM 37.8117 -76.0044 215° Southwest 528 608 35,400 1,140 Climbing Washington Center
06:18PM 37.6922 -76.1297 220° Southwest 522 601 36,600 1,200 Climbing Washington Center
06:19PM 37.5875 -76.2156 213° Southwest 512 589 37,800 1,140 Climbing Washington Center
06:20PM 37.4764 -76.3194 217° Southwest 507 583 38,900 1,020 Climbing Washington Center
06:21PM 37.3631 -76.4203 215° Southwest 507 583 39,900 540 Climbing Washington Center
06:22PM 37.2497 -76.5233 216° Southwest 502 578 40,000  Climbing Washington Center
06:23PM 37.1236 -76.6389 216° Southwest 502 578 40,000  Level Washington Center
06:24PM 37.0100 -76.7442 217° Southwest 507 583 40,000  Level Washington Center
06:25PM 36.8781 -76.8019 199° South 498 573 40,000  Level Washington Center
06:26PM 36.7422 -76.8206 186° South 488 562 40,000  Level Washington Center
06:27PM 36.6044 -76.8392 186° South 494 568 40,000  Level Washington Center
06:28PM 36.4769 -76.8550 186° South 508 585 40,000  Level Washington Center
06:29PM 36.3411 -76.8889 191° South 508 585 40,000  Level Washington Center
06:30PM 36.2067 -76.9564 202° Southwest 503 579 40,000  Level Washington Center
06:31PM 36.0744 -77.0208 202° Southwest 515 593 40,000  Level Washington Center
06:32PM 35.9464 -77.0878 203° Southwest 515 593 40,000  Level Washington Center
06:33PM 35.8097 -77.1722 207° Southwest 501 577 40,000  Level Washington Center
06:34PM 35.6956 -77.2725 216° Southwest 501 577 40,000 -180 Level Washington Center
06:35PM 35.5794 -77.3747 216° Southwest 512 589 39,700 -900 Descending Washington Center
06:36PM 35.4694 -77.4717 216° Southwest 506 582 38,200 -1,260 Descending Washington Center
06:37PM 35.3572 -77.5708 216° Southwest 506 582 37,300 -1,440 Descending Washington Center
06:38PM 35.2511 -77.6828 221° Southwest 511 588 35,300 -1,680 Descending Washington Center
06:39PM 35.1406 -77.7967 220° Southwest 518 596 34,000 -1,380 Descending Washington Center
06:40PM 35.0278 -77.9128 220° Southwest 523 602 32,600 -1,680 Descending Washington Center
06:41PM 34.9169 -78.0261 220° Southwest 528 608 30,700 -1,920 Descending Washington Center
06:42PM 34.8253 -78.1194 220° Southwest 528 608 28,800 -1,380 Descending Washington Center
06:43PM 34.7056 -78.2497 222° Southwest 533 613 28,000 -420 Descending Washington Center
06:44PM 34.5967 -78.3597 220° Southwest 528 608 28,000  Level Washington Center
06:45PM 34.4486 -78.5064 219° Southwest 523 602 28,000  Level Jacksonville Center
06:46PM 34.3419 -78.6225 222° Southwest 523 602 28,000  Level Jacksonville Center
06:47PM 34.2933 -78.7858 250° West 511 588 28,000  Level Jacksonville Center
06:48PM 34.3361 -78.9497 288° West 475 547 28,000  Level Jacksonville Center
06:49PM 34.3889 -79.1108 292° West 488 562 28,000  Level Jacksonville Center
06:50PM 34.4458 -79.2744 293° West 499 574 28,000  Level Jacksonville Center
06:51PM 34.4983 -79.4361 292° West 519 597 28,000 -780 Level Jacksonville Center
06:52PM 34.5425 -79.6031 288° West 519 597 26,500 -1,980 Descending Jacksonville Center
06:53PM 34.5431 -79.7872 270° West 501 577 24,100 -2,880 Descending Jacksonville Center
06:54PM 34.5386 -79.9486 268° West 497 572 20,800 -3,120 Descending Jacksonville Center
06:55PM 34.6222 -80.0542 314° West 417 480 17,900 -1,980 Descending Jacksonville Center
06:56PM 34.7161 -80.1419 322° Northwest 417 480 16,900 -1,440 Descending Jacksonville Center
06:57PM 34.8011 -80.2203 323° Northwest 403 464 15,100 -2,280 Descending Jacksonville Center
06:59PM 34.9003 -80.3158 322° Northwest 361 415 12,000 -2,460 Descending Atlanta Center
07:00PM 34.9711 -80.3861 321° Northwest 311 358 9,800 -2,280 Descending Atlanta Center
07:01PM 35.0400 -80.4517 322° Northwest 277 319 7,300 -2,340 Descending Atlanta Center
07:02PM 35.1000 -80.5075 323° Northwest 278 320 4,900 -2,100 Descending Atlanta Center
07:03PM 35.1642 -80.5683 322° Northwest 275 316 3,100 -900 Descending Atlanta Center
07:04PM 35.2222 -80.6244 322° Northwest 258 297 3,100  Level Atlanta Center
07:05PM 35.2758 -80.6731 323° Northwest 237 273 3,100 -540 Level Atlanta Center
07:06PM 35.3206 -80.7094 326° Northwest 173 199 2,100 -1,020 Descending Atlanta Center
07:07PM 35.3561 -80.7181 349° North 115 132 1,100 -1,020 Descending Atlanta Center
07:09PM 35.3833 -80.7000 321° Northwest  Level FlightAware Approximate
07:16PM 35.3878 -80.7091 321° Northwest  Level Estimated
07:17PM 35.3878 -80.7091 321° Northwest  Level Estimated
07:18PM 35.3878 -80.7091 321° Northwest  Level Estimated
07:19PM 35.3878 -80.7091 321° Northwest  Level Estimated